Terminal Aerodrome Forecast
Issued by NWS Shreveport, LA

Home | Current Version | Previous Version | Text Only | Print | Product List | Glossary On
Versions: 1 2 3 4 5 6 7 8 9 10 11 12 13
995
FTUS44 KSHV 111140
TAFLFK
TAF
KLFK 111140Z 1112/1212 00000KT P6SM SKC
     FM111500 24007KT P6SM SCT250
     FM120100 25005KT P6SM SCT250
     FM120600 29005KT P6SM SKC
     FM121100 33007KT P6SM SKC=

USA.gov is the U.S. government's official web portal to all federal, state and local government web resources and services.